< < Back
Terminal Aerodrome Forecast


Current Version              Previous Versions:   1  2  3  4  5  6  7  8  9  

Terminal Aerodrome Forecast

209
FTUS44 KMOB 261100
TAFPNS
TAF
KPNS 261131Z 2612/2712 32008KT P6SM SKC
     FM262100 25010KT P6SM SKC
     FM270700 31010KT P6SM SKC=

Latest METAR

561
SAUS70 KWBC 262000 RRG
MTRPNS
METAR KPNS 261953Z 29008KT 10SM CLR 18/M03 A3017 RMK AO2 SLP220
T01781028


USA.gov is the U.S. government's official web portal to all federal, state and local government web resources and services.